createdAt,value
2018-11-03T00:00:04.730Z,31.90
2018-11-03T00:00:35.838Z,31.90
2018-11-03T00:01:06.967Z,32.90
2018-11-03T00:01:38.124Z,31.95
2018-11-03T00:02:09.242Z,32.03
2018-11-03T00:02:40.402Z,31.82
2018-11-03T00:03:11.606Z,32.05
2018-11-03T00:03:42.740Z,31.60
2018-11-03T00:04:13.883Z,31.55
2018-11-03T00:04:45.031Z,30.68
2018-11-03T00:05:16.197Z,30.15
2018-11-03T00:05:47.353Z,31.17
2018-11-03T00:06:18.520Z,30.08
2018-11-03T00:06:49.686Z,29.32
2018-11-03T00:07:20.841Z,30.92
2018-11-03T00:07:51.972Z,31.48
2018-11-03T00:08:23.092Z,32.03
2018-11-03T00:08:54.235Z,29.92
2018-11-03T00:09:25.356Z,29.98
2018-11-03T00:09:56.500Z,29.70
2018-11-03T00:10:27.614Z,29.35
2018-11-03T00:10:58.732Z,29.98
2018-11-03T00:11:29.842Z,29.87
2018-11-03T00:12:01.046Z,29.82
2018-11-03T00:12:32.200Z,29.45
2018-11-03T00:13:03.315Z,29.67
2018-11-03T00:13:34.478Z,29.37
2018-11-03T00:14:05.590Z,29.27
2018-11-03T00:14:36.758Z,29.85
2018-11-03T00:15:07.896Z,31.12
2018-11-03T00:15:39.047Z,30.08
2018-11-03T00:16:10.175Z,29.77
2018-11-03T00:16:41.367Z,30.20
2018-11-03T00:17:12.607Z,31.35
2018-11-03T00:17:43.767Z,30.65
2018-11-03T00:18:14.886Z,30.88
2018-11-03T00:18:46.030Z,29.48
2018-11-03T00:19:17.157Z,28.38
2018-11-03T00:19:48.325Z,29.25
2018-11-03T00:20:19.451Z,28.83
2018-11-03T00:20:50.642Z,28.60
2018-11-03T00:21:21.766Z,27.50
2018-11-03T00:21:52.937Z,28.40
2018-11-03T00:22:24.082Z,26.70
2018-11-03T00:22:55.227Z,27.62
2018-11-03T00:23:26.346Z,28.70
2018-11-03T00:23:57.472Z,27.67
2018-11-03T00:24:28.589Z,26.97
2018-11-03T00:24:59.777Z,25.80
2018-11-03T00:25:30.928Z,26.57
2018-11-03T00:26:02.096Z,27.50
2018-11-03T00:26:33.250Z,28.87
2018-11-03T00:27:04.386Z,26.02
2018-11-03T00:27:35.577Z,29.27
2018-11-03T00:28:06.706Z,27.37
2018-11-03T00:28:37.888Z,28.45
2018-11-03T00:29:09.015Z,27.32
2018-11-03T00:29:40.140Z,25.95
2018-11-03T00:30:11.269Z,27.35
2018-11-03T00:30:42.422Z,26.00
2018-11-03T00:31:13.558Z,24.20
2018-11-03T00:31:44.676Z,25.60
2018-11-03T00:32:15.846Z,25.05
2018-11-03T00:32:46.974Z,25.05
2018-11-03T00:33:18.110Z,25.10
2018-11-03T00:33:49.222Z,26.50
2018-11-03T00:34:20.348Z,25.70
2018-11-03T00:34:51.456Z,25.02
2018-11-03T00:35:22.599Z,26.42
2018-11-03T00:35:53.744Z,25.97
2018-11-03T00:36:24.860Z,26.97
2018-11-03T00:36:55.966Z,27.25
2018-11-03T00:37:27.119Z,27.93
2018-11-03T00:37:58.303Z,26.93
2018-11-03T00:38:29.415Z,27.55
2018-11-03T00:39:00.562Z,27.45
2018-11-03T00:39:31.684Z,27.37
2018-11-03T00:40:02.822Z,27.35
2018-11-03T00:40:33.993Z,27.37
2018-11-03T00:41:05.090Z,27.50
2018-11-03T00:41:36.274Z,27.62
2018-11-03T00:42:07.443Z,27.62
2018-11-03T00:42:38.559Z,28.65
2018-11-03T00:43:09.699Z,28.45
2018-11-03T00:43:40.811Z,27.42
2018-11-03T00:44:11.987Z,26.68
2018-11-03T00:44:43.150Z,27.13
2018-11-03T00:45:14.270Z,27.70
2018-11-03T00:45:45.391Z,27.62
2018-11-03T00:46:16.516Z,26.07
2018-11-03T00:46:47.628Z,24.85
2018-11-03T00:47:18.799Z,25.57
2018-11-03T00:47:49.950Z,26.45
2018-11-03T00:48:21.060Z,25.88
2018-11-03T00:48:52.226Z,25.37
2018-11-03T00:49:23.371Z,26.40
2018-11-03T00:49:54.502Z,25.57
2018-11-03T00:50:25.638Z,26.15
2018-11-03T00:50:56.750Z,26.17
2018-11-03T00:51:27.922Z,26.68
2018-11-03T00:51:59.062Z,26.70
2018-11-03T00:52:30.238Z,26.30
2018-11-03T00:53:01.354Z,25.05
2018-11-03T00:53:32.468Z,26.25
2018-11-03T00:54:03.642Z,25.55
2018-11-03T00:54:34.804Z,26.12
2018-11-03T00:55:05.914Z,25.52
2018-11-03T00:55:37.041Z,25.25
2018-11-03T00:56:08.186Z,25.85
2018-11-03T00:56:39.336Z,25.50
2018-11-03T00:57:10.470Z,26.07
2018-11-03T00:57:41.602Z,26.00
2018-11-03T00:58:12.824Z,27.50
2018-11-03T00:58:43.980Z,25.90
2018-11-03T00:59:15.089Z,25.25
2018-11-03T00:59:46.209Z,25.70
2018-11-03T01:00:17.327Z,26.27
2018-11-03T01:00:48.452Z,26.45
2018-11-03T01:01:19.600Z,25.40
2018-11-03T01:01:50.701Z,25.08
2018-11-03T01:02:21.850Z,25.23
2018-11-03T01:02:52.964Z,24.63
2018-11-03T01:03:24.140Z,25.08
2018-11-03T01:03:55.285Z,26.68
2018-11-03T01:04:26.464Z,25.95
2018-11-03T01:04:57.582Z,25.32
2018-11-03T01:05:28.755Z,25.68
2018-11-03T01:05:59.876Z,25.97
2018-11-03T01:06:31.038Z,24.45
2018-11-03T01:07:02.149Z,24.80
2018-11-03T01:07:33.274Z,24.80
2018-11-03T01:08:04.386Z,24.57
2018-11-03T01:08:35.545Z,23.25
2018-11-03T01:09:06.707Z,24.25
2018-11-03T01:09:37.869Z,22.77
2018-11-03T01:10:08.979Z,23.10
2018-11-03T01:10:40.092Z,23.47
2018-11-03T01:11:11.215Z,22.65
2018-11-03T01:11:42.346Z,23.45
2018-11-03T01:12:13.484Z,24.10
2018-11-03T01:12:44.657Z,23.42
2018-11-03T01:13:15.772Z,23.60
2018-11-03T01:13:46.969Z,22.90
2018-11-03T01:14:18.139Z,23.52
2018-11-03T01:14:49.290Z,24.55
2018-11-03T01:15:20.434Z,24.43
2018-11-03T01:15:51.557Z,23.67
2018-11-03T01:16:22.661Z,22.07
2018-11-03T01:16:53.830Z,24.18
2018-11-03T01:17:24.963Z,23.25
2018-11-03T01:17:56.135Z,23.02
2018-11-03T01:18:27.256Z,23.62
2018-11-03T01:18:58.461Z,23.80
2018-11-03T01:19:29.620Z,24.55
2018-11-03T01:20:00.783Z,24.45
2018-11-03T01:20:31.956Z,24.90
2018-11-03T01:21:03.080Z,23.10
2018-11-03T01:21:34.234Z,23.80
2018-11-03T01:22:05.373Z,24.75
2018-11-03T01:22:36.502Z,24.20
2018-11-03T01:23:07.732Z,23.27
2018-11-03T01:23:38.934Z,23.60
2018-11-03T01:24:09.991Z,24.82
2018-11-03T01:24:41.143Z,24.63
2018-11-03T01:25:12.275Z,23.55
2018-11-03T01:25:43.418Z,23.27
2018-11-03T01:26:14.575Z,23.47
2018-11-03T01:26:45.753Z,22.82
2018-11-03T01:27:16.903Z,23.40
2018-11-03T01:27:48.085Z,23.73
2018-11-03T01:28:19.225Z,24.00
2018-11-03T01:28:50.385Z,23.57
2018-11-03T01:29:21.501Z,23.77
2018-11-03T01:29:52.620Z,24.15
2018-11-03T01:30:23.762Z,25.40
2018-11-03T01:30:54.872Z,24.75
2018-11-03T01:31:26.006Z,24.20
2018-11-03T01:31:57.157Z,25.40
2018-11-03T01:32:28.432Z,25.68
2018-11-03T01:32:59.494Z,24.95
2018-11-03T01:33:30.603Z,25.45
2018-11-03T01:34:01.745Z,23.18
2018-11-03T01:34:32.870Z,24.80
2018-11-03T01:35:04.052Z,22.65
2018-11-03T01:35:35.182Z,24.25
2018-11-03T01:36:07.281Z,24.05
2018-11-03T01:36:38.414Z,23.95
2018-11-03T01:37:09.596Z,23.87
2018-11-03T01:37:40.741Z,24.45
2018-11-03T01:38:11.889Z,25.55
2018-11-03T01:38:43.049Z,24.35
2018-11-03T01:39:14.166Z,23.73
2018-11-03T01:39:45.313Z,23.15
2018-11-03T01:40:16.477Z,23.15
2018-11-03T01:40:47.613Z,25.23
2018-11-03T01:41:18.753Z,24.47
2018-11-03T01:41:49.927Z,24.00
2018-11-03T01:42:21.097Z,22.32
2018-11-03T01:42:52.242Z,23.90
2018-11-03T01:43:23.346Z,23.75
2018-11-03T01:43:54.564Z,23.98
2018-11-03T01:44:25.702Z,23.10
2018-11-03T01:44:56.823Z,23.70
2018-11-03T01:45:27.964Z,23.32
2018-11-03T01:45:59.088Z,23.25
2018-11-03T01:46:30.269Z,23.55
2018-11-03T01:47:01.427Z,23.67
2018-11-03T01:47:32.532Z,23.07
2018-11-03T01:48:03.684Z,22.73
2018-11-03T01:48:34.870Z,23.27
2018-11-03T01:49:06.076Z,23.87
2018-11-03T01:49:37.234Z,22.85
2018-11-03T01:50:08.362Z,22.67
2018-11-03T01:50:39.514Z,23.30
2018-11-03T01:51:10.643Z,24.50
2018-11-03T01:51:41.794Z,23.98
2018-11-03T01:52:12.984Z,23.73
2018-11-03T01:52:44.099Z,23.62
2018-11-03T01:53:15.240Z,24.20
2018-11-03T01:53:46.378Z,24.12
2018-11-03T01:54:17.603Z,23.45
2018-11-03T01:54:48.756Z,23.40
2018-11-03T01:55:19.923Z,24.90
2018-11-03T01:55:51.068Z,22.42
2018-11-03T01:56:22.208Z,24.10
2018-11-03T01:56:53.331Z,23.85
2018-11-03T01:57:24.448Z,24.12
2018-11-03T01:57:55.593Z,23.67
2018-11-03T01:58:26.757Z,24.82
2018-11-03T01:58:57.873Z,25.12
2018-11-03T01:59:29.042Z,23.38
2018-11-03T02:00:00.187Z,23.77
2018-11-03T02:00:31.299Z,23.38
2018-11-03T02:01:02.500Z,24.47
2018-11-03T02:01:33.628Z,23.85
2018-11-03T02:02:04.817Z,25.27
2018-11-03T02:02:35.932Z,25.00
2018-11-03T02:03:07.067Z,24.82
2018-11-03T02:03:38.172Z,25.10
2018-11-03T02:04:09.304Z,24.72
2018-11-03T02:04:40.431Z,25.68
2018-11-03T02:05:11.619Z,24.85
2018-11-03T02:05:42.771Z,24.90
2018-11-03T02:06:13.916Z,25.37
2018-11-03T02:06:45.031Z,25.32
2018-11-03T02:07:16.134Z,24.75
2018-11-03T02:07:47.251Z,23.75
2018-11-03T02:08:18.363Z,24.63
2018-11-03T02:08:49.503Z,25.75
2018-11-03T02:09:20.638Z,25.10
2018-11-03T02:09:51.788Z,25.57
2018-11-03T02:10:22.926Z,25.15
2018-11-03T02:10:54.059Z,24.37
2018-11-03T02:11:25.197Z,25.05
2018-11-03T02:11:56.326Z,25.77
2018-11-03T02:12:27.434Z,25.90
2018-11-03T02:12:58.618Z,24.52
2018-11-03T02:13:29.732Z,25.27
2018-11-03T02:14:00.855Z,25.27
2018-11-03T02:14:31.991Z,25.27
2018-11-03T02:15:03.119Z,25.68
2018-11-03T02:15:34.278Z,25.90
2018-11-03T02:16:05.394Z,25.80
2018-11-03T02:16:36.532Z,25.72
2018-11-03T02:17:07.687Z,26.62
2018-11-03T02:17:38.893Z,27.05
2018-11-03T02:18:10.031Z,26.85
2018-11-03T02:18:41.136Z,27.58
2018-11-03T02:19:12.242Z,26.17
2018-11-03T02:19:43.395Z,28.15
2018-11-03T02:20:14.516Z,26.02
2018-11-03T02:20:45.661Z,27.82
2018-11-03T02:21:16.772Z,26.50
2018-11-03T02:21:47.879Z,26.80
2018-11-03T02:22:19.000Z,26.07
2018-11-03T02:22:50.137Z,26.27
2018-11-03T02:23:21.281Z,27.80
2018-11-03T02:23:52.432Z,27.05
2018-11-03T02:24:23.551Z,27.87
2018-11-03T02:24:54.691Z,27.95
2018-11-03T02:25:25.832Z,27.82
2018-11-03T02:25:56.982Z,27.25
2018-11-03T02:26:28.133Z,26.33
2018-11-03T02:26:59.302Z,26.33
2018-11-03T02:27:30.407Z,26.80
2018-11-03T02:28:01.543Z,27.67
2018-11-03T02:28:32.692Z,27.10
2018-11-03T02:29:03.852Z,26.77
2018-11-03T02:29:35.029Z,28.00
2018-11-03T02:30:06.175Z,26.73
2018-11-03T02:30:37.333Z,28.42
2018-11-03T02:31:08.467Z,29.00
2018-11-03T02:31:39.667Z,29.45
2018-11-03T02:32:10.790Z,28.87
2018-11-03T02:32:41.936Z,29.65
2018-11-03T02:33:13.073Z,29.07
2018-11-03T02:33:44.187Z,29.20
2018-11-03T02:34:15.324Z,28.87
2018-11-03T02:34:46.452Z,29.00
2018-11-03T02:35:17.610Z,29.82
2018-11-03T02:35:48.742Z,29.95
2018-11-03T02:36:19.892Z,30.02
2018-11-03T02:36:51.032Z,29.50
2018-11-03T02:37:22.148Z,29.95
2018-11-03T02:37:53.259Z,30.65
2018-11-03T02:38:24.386Z,28.85
2018-11-03T02:38:55.498Z,29.90
2018-11-03T02:39:27.267Z,29.37
2018-11-03T02:39:58.397Z,30.23
2018-11-03T02:40:29.534Z,29.18
2018-11-03T02:41:00.746Z,28.87
2018-11-03T02:41:31.847Z,29.23
2018-11-03T02:42:02.992Z,30.45
2018-11-03T02:42:34.119Z,29.65
2018-11-03T02:43:05.239Z,30.55
2018-11-03T02:43:36.365Z,28.90
2018-11-03T02:44:07.536Z,29.52
2018-11-03T02:44:38.715Z,28.45
2018-11-03T02:45:09.839Z,28.02
2018-11-03T02:45:40.956Z,27.80
2018-11-03T02:46:12.088Z,28.50
2018-11-03T02:46:43.290Z,27.37
2018-11-03T02:47:14.448Z,27.22
2018-11-03T02:47:45.608Z,28.75
2018-11-03T02:48:17.291Z,29.37
2018-11-03T02:48:48.459Z,28.47
2018-11-03T02:49:19.587Z,28.25
2018-11-03T02:49:50.745Z,29.67
2018-11-03T02:50:21.847Z,30.15
2018-11-03T02:50:52.987Z,28.80
2018-11-03T02:51:24.110Z,29.10
2018-11-03T02:51:55.252Z,29.48
2018-11-03T02:52:26.506Z,30.48
2018-11-03T02:52:57.634Z,29.75
2018-11-03T02:53:28.770Z,30.25
2018-11-03T02:53:59.885Z,30.27
2018-11-03T02:54:31.025Z,30.23
2018-11-03T02:55:02.205Z,30.72
2018-11-03T02:55:33.346Z,31.40
2018-11-03T02:56:04.457Z,29.67
2018-11-03T02:56:35.607Z,31.07
2018-11-03T02:57:06.731Z,30.48
2018-11-03T02:57:37.943Z,28.30
2018-11-03T02:58:09.095Z,30.50
2018-11-03T02:58:40.215Z,29.77
2018-11-03T02:59:11.318Z,29.80
2018-11-03T02:59:42.457Z,30.90
2018-11-03T03:00:13.667Z,30.52
2018-11-03T03:00:44.783Z,28.52
2018-11-03T03:01:15.903Z,29.60
2018-11-03T03:01:47.021Z,30.57
2018-11-03T03:02:18.174Z,30.55
2018-11-03T03:02:49.343Z,29.50
2018-11-03T03:03:20.462Z,29.02
2018-11-03T03:03:51.611Z,29.42
2018-11-03T03:04:22.754Z,29.45
2018-11-03T03:04:53.885Z,29.52
2018-11-03T03:05:25.048Z,30.02
2018-11-03T03:05:56.245Z,30.50
2018-11-03T03:06:27.369Z,29.35
2018-11-03T03:06:58.502Z,29.07
2018-11-03T03:07:29.655Z,29.55
2018-11-03T03:08:00.809Z,29.98
2018-11-03T03:08:31.946Z,29.10
2018-11-03T03:09:03.060Z,28.30
2018-11-03T03:09:34.182Z,28.52
2018-11-03T03:10:05.302Z,29.37
2018-11-03T03:10:36.446Z,28.40
2018-11-03T03:11:07.569Z,28.15
2018-11-03T03:11:38.713Z,29.85
2018-11-03T03:12:09.850Z,30.77
2018-11-03T03:12:41.043Z,29.75
2018-11-03T03:13:12.167Z,30.23
2018-11-03T03:13:43.300Z,30.50
2018-11-03T03:14:14.419Z,30.65
2018-11-03T03:14:45.526Z,30.60
2018-11-03T03:15:16.672Z,30.72
2018-11-03T03:15:47.780Z,31.42
2018-11-03T03:16:18.909Z,31.85
2018-11-03T03:16:50.039Z,31.15
2018-11-03T03:17:21.189Z,31.33
2018-11-03T03:17:52.346Z,31.75
2018-11-03T03:18:23.459Z,29.70
2018-11-03T03:18:54.616Z,31.00
2018-11-03T03:19:25.741Z,29.77
2018-11-03T03:19:56.881Z,30.17
2018-11-03T03:20:28.004Z,31.57
2018-11-03T03:20:59.132Z,29.72
2018-11-03T03:21:30.256Z,31.15
2018-11-03T03:22:01.371Z,30.10
2018-11-03T03:22:32.555Z,32.48
2018-11-03T03:23:03.735Z,30.70
2018-11-03T03:23:34.842Z,29.82
2018-11-03T03:24:05.964Z,30.68
2018-11-03T03:24:37.074Z,29.37
2018-11-03T03:25:08.227Z,29.45
2018-11-03T03:25:39.362Z,29.87
2018-11-03T03:26:10.486Z,29.92
2018-11-03T03:26:41.621Z,30.45
2018-11-03T03:27:12.796Z,30.75
2018-11-03T03:27:43.955Z,28.67
2018-11-03T03:28:15.095Z,29.57
2018-11-03T03:28:46.271Z,28.40
2018-11-03T03:29:17.471Z,27.95
2018-11-03T03:29:48.664Z,28.15
2018-11-03T03:30:19.790Z,29.05
2018-11-03T03:30:50.936Z,30.12
2018-11-03T03:31:22.046Z,28.60
2018-11-03T03:31:53.150Z,30.25
2018-11-03T03:32:24.332Z,32.58
2018-11-03T03:32:55.516Z,31.50
2018-11-03T03:33:26.636Z,33.25
2018-11-03T03:33:57.759Z,31.27
2018-11-03T03:34:28.888Z,33.33
2018-11-03T03:35:00.063Z,34.67
2018-11-03T03:35:31.201Z,32.78
2018-11-03T03:36:02.336Z,31.77
2018-11-03T03:36:33.503Z,31.33
2018-11-03T03:37:04.706Z,31.25
2018-11-03T03:37:35.797Z,31.35
2018-11-03T03:38:06.924Z,31.15
2018-11-03T03:38:38.123Z,31.12
2018-11-03T03:39:09.275Z,30.27
2018-11-03T03:39:40.401Z,30.40
2018-11-03T03:40:11.530Z,31.70
2018-11-03T03:40:42.666Z,29.75
2018-11-03T03:41:13.788Z,29.57
2018-11-03T03:41:44.918Z,30.80
2018-11-03T03:42:16.036Z,30.27
2018-11-03T03:42:47.204Z,31.37
2018-11-03T03:43:18.361Z,30.17
2018-11-03T03:43:49.555Z,30.90
2018-11-03T03:44:20.684Z,31.95
2018-11-03T03:44:51.809Z,34.03
2018-11-03T03:45:22.967Z,33.25
2018-11-03T03:45:54.101Z,36.20
2018-11-03T03:46:25.215Z,32.73
2018-11-03T03:46:56.349Z,33.73
2018-11-03T03:47:27.487Z,33.35
2018-11-03T03:47:58.658Z,33.90
2018-11-03T03:48:29.783Z,36.85
2018-11-03T03:49:01.002Z,37.70
2018-11-03T03:49:32.149Z,35.75
2018-11-03T03:50:03.263Z,38.63
2018-11-03T03:50:34.413Z,40.55
2018-11-03T03:51:05.533Z,40.88
2018-11-03T03:51:36.645Z,40.00
2018-11-03T03:52:07.811Z,41.63
2018-11-03T03:52:38.929Z,44.15
2018-11-03T03:53:10.106Z,40.75
2018-11-03T03:53:41.235Z,41.33
2018-11-03T03:54:12.394Z,40.50
2018-11-03T03:54:43.561Z,42.13
2018-11-03T03:55:14.670Z,40.65
2018-11-03T03:55:45.806Z,41.13
2018-11-03T03:56:16.934Z,42.58
2018-11-03T03:56:48.031Z,43.92
2018-11-03T03:57:19.154Z,43.20
2018-11-03T03:57:50.263Z,45.15
2018-11-03T03:58:21.447Z,44.58
2018-11-03T03:58:52.554Z,44.25
2018-11-03T03:59:23.661Z,45.58
2018-11-03T03:59:54.814Z,47.60
2018-11-03T04:00:25.920Z,45.52
2018-11-03T04:00:57.033Z,46.42
2018-11-03T04:01:28.164Z,48.50
2018-11-03T04:01:59.303Z,47.08
2018-11-03T04:02:30.439Z,47.83
2018-11-03T04:03:01.557Z,48.50
2018-11-03T04:03:32.709Z,48.78
2018-11-03T04:04:03.843Z,47.15
2018-11-03T04:04:34.979Z,48.70
2018-11-03T04:05:06.100Z,48.58
2018-11-03T04:05:37.236Z,50.58
2018-11-03T04:06:08.368Z,49.30
2018-11-03T04:06:39.487Z,48.10
2018-11-03T04:07:10.634Z,49.08
2018-11-03T04:07:41.835Z,48.75
2018-11-03T04:08:12.960Z,49.20
2018-11-03T04:08:44.108Z,49.18
2018-11-03T04:09:15.219Z,50.95
2018-11-03T04:09:46.356Z,48.80
2018-11-03T04:10:17.498Z,49.23
2018-11-03T04:10:48.650Z,49.08
2018-11-03T04:11:19.818Z,48.98
2018-11-03T04:11:50.918Z,49.23
2018-11-03T04:12:22.045Z,51.00
2018-11-03T04:12:53.190Z,52.53
2018-11-03T04:13:24.372Z,52.20
2018-11-03T04:13:55.553Z,52.27
2018-11-03T04:14:26.647Z,53.45
2018-11-03T04:14:57.763Z,52.13
2018-11-03T04:15:28.934Z,53.00
2018-11-03T04:16:00.071Z,55.48
2018-11-03T04:16:31.219Z,53.85
2018-11-03T04:17:02.343Z,53.58
2018-11-03T04:17:33.474Z,53.23
2018-11-03T04:18:04.619Z,51.10
2018-11-03T04:18:35.799Z,52.03
2018-11-03T04:19:06.912Z,52.17
2018-11-03T04:19:38.075Z,52.08
2018-11-03T04:20:09.271Z,52.80
2018-11-03T04:20:40.401Z,52.20
2018-11-03T04:21:11.532Z,51.75
2018-11-03T04:21:42.668Z,51.13
2018-11-03T04:22:13.776Z,53.65
2018-11-03T04:22:44.899Z,54.98
2018-11-03T04:23:16.655Z,53.42
2018-11-03T04:23:47.775Z,54.55
2018-11-03T04:24:18.902Z,54.98
2018-11-03T04:24:50.062Z,56.18
2018-11-03T04:25:21.186Z,57.90
2018-11-03T04:25:52.340Z,56.77
2018-11-03T04:26:23.452Z,54.55
2018-11-03T04:26:54.607Z,57.60
2018-11-03T04:27:25.727Z,57.78
2018-11-03T04:27:56.842Z,57.55
2018-11-03T04:28:27.997Z,57.58
2018-11-03T04:28:59.112Z,58.50
2018-11-03T04:29:30.234Z,56.40
2018-11-03T04:30:01.371Z,55.43
2018-11-03T04:30:32.530Z,54.67
2018-11-03T04:31:03.712Z,55.23
2018-11-03T04:31:35.899Z,55.20
2018-11-03T04:32:07.033Z,55.70
2018-11-03T04:32:38.260Z,54.98
2018-11-03T04:33:09.409Z,56.18
2018-11-03T04:33:40.550Z,55.75
2018-11-03T04:34:11.691Z,55.92
2018-11-03T04:34:42.855Z,56.20
2018-11-03T04:35:13.989Z,56.77
2018-11-03T04:35:45.102Z,56.73
2018-11-03T04:36:16.255Z,56.23
2018-11-03T04:36:47.394Z,55.85
2018-11-03T04:37:18.507Z,57.45
2018-11-03T04:37:49.676Z,56.88
2018-11-03T04:38:20.828Z,57.50
2018-11-03T04:38:52.008Z,58.02
2018-11-03T04:39:23.153Z,57.80
2018-11-03T04:39:54.266Z,59.85
2018-11-03T04:40:25.395Z,55.30
2018-11-03T04:40:56.506Z,56.98
2018-11-03T04:41:31.554Z,58.13
2018-11-03T04:42:02.686Z,60.17
2018-11-03T04:42:33.800Z,60.43
2018-11-03T04:43:04.957Z,62.53
2018-11-03T04:43:36.135Z,67.00
2018-11-03T04:44:07.264Z,64.47
2018-11-03T04:44:38.390Z,67.27
2018-11-03T04:45:09.550Z,64.62
2018-11-03T04:45:40.752Z,66.57
2018-11-03T04:46:11.776Z,61.92
2018-11-03T04:46:42.921Z,63.30
2018-11-03T04:47:14.118Z,63.15
2018-11-03T04:47:45.308Z,62.00
2018-11-03T04:48:16.423Z,61.90
2018-11-03T04:48:47.544Z,62.50
2018-11-03T04:49:18.706Z,65.90
2018-11-03T04:49:49.817Z,62.38
2018-11-03T04:50:20.937Z,61.50
2018-11-03T04:50:52.093Z,66.42
2018-11-03T04:51:23.233Z,65.87
2018-11-03T04:51:54.379Z,68.83
2018-11-03T04:52:25.630Z,69.50
2018-11-03T04:52:56.751Z,66.97
2018-11-03T04:53:27.883Z,68.22
2018-11-03T04:53:59.018Z,66.70
2018-11-03T04:54:30.244Z,72.35
2018-11-03T04:55:01.439Z,70.28
2018-11-03T04:55:32.558Z,68.15
2018-11-03T04:56:03.675Z,70.03
2018-11-03T04:56:34.819Z,76.62
2018-11-03T04:57:05.943Z,75.80
2018-11-03T04:57:37.053Z,78.70
2018-11-03T04:58:08.174Z,75.52
2018-11-03T04:58:39.309Z,75.35
2018-11-03T04:59:10.453Z,80.20
2018-11-03T04:59:41.617Z,80.95
2018-11-03T05:00:12.756Z,78.22
2018-11-03T05:00:43.915Z,83.17
2018-11-03T05:01:15.052Z,83.82
2018-11-03T05:01:46.181Z,84.07
2018-11-03T05:02:17.314Z,78.28
2018-11-03T05:02:48.462Z,84.17
2018-11-03T05:03:19.643Z,84.32
2018-11-03T05:03:50.876Z,79.72
2018-11-03T05:04:21.994Z,86.22
2018-11-03T05:04:53.143Z,88.27
2018-11-03T05:05:24.306Z,90.97
2018-11-03T05:05:55.446Z,89.17
2018-11-03T05:06:26.582Z,93.03
2018-11-03T05:06:57.701Z,94.20
2018-11-03T05:07:28.831Z,94.05
2018-11-03T05:07:59.942Z,93.80
2018-11-03T05:08:31.096Z,92.53
2018-11-03T05:09:02.230Z,92.30
2018-11-03T05:09:33.354Z,94.50
2018-11-03T05:10:04.604Z,94.35
2018-11-03T05:10:35.713Z,90.17
2018-11-03T05:11:07.500Z,88.42
2018-11-03T05:11:38.646Z,85.72
2018-11-03T05:12:09.787Z,86.95
2018-11-03T05:12:40.906Z,87.02
2018-11-03T05:13:12.067Z,87.50
2018-11-03T05:13:43.232Z,88.10
2018-11-03T05:14:14.401Z,87.95
2018-11-03T05:14:45.528Z,86.30
2018-11-03T05:15:16.660Z,86.20
2018-11-03T05:15:47.806Z,90.20
2018-11-03T05:16:18.938Z,88.00
2018-11-03T05:16:50.079Z,93.05
2018-11-03T05:17:21.284Z,96.82
2018-11-03T05:17:52.403Z,95.57
2018-11-03T05:18:23.544Z,98.95
2018-11-03T05:18:54.720Z,98.55
2018-11-03T05:19:25.876Z,99.00
2018-11-03T05:19:57.019Z,96.80
2018-11-03T05:20:28.165Z,101.35
2018-11-03T05:20:59.319Z,100.90
2018-11-03T05:21:30.491Z,98.15
2018-11-03T05:22:01.646Z,101.22
2018-11-03T05:22:32.777Z,100.12
2018-11-03T05:23:03.916Z,96.75
2018-11-03T05:23:35.103Z,97.22
2018-11-03T05:24:06.276Z,96.70
2018-11-03T05:24:37.405Z,101.80
2018-11-03T05:25:08.528Z,98.67
2018-11-03T05:25:39.670Z,98.42
2018-11-03T05:26:10.883Z,98.70
2018-11-03T05:26:41.977Z,99.07
2018-11-03T05:27:13.135Z,98.62
2018-11-03T05:27:44.287Z,99.87
2018-11-03T05:28:15.406Z,96.35
2018-11-03T05:28:46.578Z,96.55
2018-11-03T05:29:17.757Z,98.03
2018-11-03T05:29:48.857Z,98.30
2018-11-03T05:30:19.992Z,95.90
2018-11-03T05:30:51.120Z,96.47
2018-11-03T05:31:22.323Z,97.10
2018-11-03T05:31:53.444Z,98.60
2018-11-03T05:32:24.630Z,98.37
2018-11-03T05:32:55.747Z,98.87
2018-11-03T05:33:26.855Z,98.22
2018-11-03T05:33:57.995Z,100.85
2018-11-03T05:34:29.123Z,97.55
2018-11-03T05:35:00.263Z,98.35
2018-11-03T05:35:31.409Z,97.97
2018-11-03T05:36:02.554Z,97.22
2018-11-03T05:36:33.662Z,97.25
2018-11-03T05:37:04.770Z,95.07
2018-11-03T05:37:35.945Z,96.30
2018-11-03T05:38:07.082Z,86.70
2018-11-03T05:38:38.217Z,96.47
2018-11-03T05:39:09.377Z,95.38
2018-11-03T05:39:40.506Z,88.92
2018-11-03T05:40:11.632Z,92.85
2018-11-03T05:40:42.752Z,90.55
2018-11-03T05:41:13.974Z,89.35
2018-11-03T05:41:45.098Z,95.05
2018-11-03T05:42:16.266Z,89.95
2018-11-03T05:42:47.384Z,93.90
2018-11-03T05:43:18.541Z,91.15
2018-11-03T05:43:49.675Z,96.25
2018-11-03T05:44:20.811Z,97.12
2018-11-03T05:44:51.938Z,99.55
2018-11-03T05:45:23.084Z,97.95
2018-11-03T05:45:54.209Z,99.50
2018-11-03T05:46:25.416Z,100.25
2018-11-03T05:46:56.578Z,98.33
2018-11-03T05:47:27.706Z,98.22
2018-11-03T05:47:58.824Z,98.72
2018-11-03T05:48:29.988Z,97.60
2018-11-03T05:49:01.096Z,99.10
2018-11-03T05:49:32.251Z,100.12
2018-11-03T05:50:03.367Z,101.65
2018-11-03T05:50:34.563Z,100.38
2018-11-03T05:51:05.713Z,98.62
2018-11-03T05:51:36.827Z,101.00
2018-11-03T05:52:07.994Z,101.12
2018-11-03T05:52:39.113Z,99.03
2018-11-03T05:53:10.248Z,100.87
2018-11-03T05:53:41.393Z,102.80
2018-11-03T05:54:12.509Z,100.62
2018-11-03T05:54:43.637Z,102.67
2018-11-03T05:55:14.814Z,100.97
2018-11-03T05:55:45.964Z,100.20
2018-11-03T05:56:17.131Z,100.40
2018-11-03T05:56:48.252Z,99.55
2018-11-03T05:57:19.381Z,99.70
2018-11-03T05:57:50.568Z,99.97
2018-11-03T05:58:21.708Z,102.15
2018-11-03T05:58:52.841Z,100.55
2018-11-03T05:59:23.950Z,97.37
2018-11-03T05:59:55.111Z,100.72
2018-11-03T06:00:26.228Z,102.27
2018-11-03T06:00:57.355Z,103.95
2018-11-03T06:01:28.477Z,100.25
2018-11-03T06:01:59.658Z,103.07
2018-11-03T06:02:30.793Z,99.37
2018-11-03T06:03:02.017Z,95.75
2018-11-03T06:03:33.107Z,94.22
2018-11-03T06:04:04.260Z,97.35
2018-11-03T06:04:35.416Z,94.37
2018-11-03T06:05:06.556Z,92.97
2018-11-03T06:05:37.678Z,90.75
2018-11-03T06:06:09.103Z,95.40
2018-11-03T06:06:40.261Z,92.78
2018-11-03T06:07:11.403Z,95.97
2018-11-03T06:07:42.589Z,98.27
2018-11-03T06:08:13.815Z,97.70
2018-11-03T06:08:45.064Z,95.80
2018-11-03T06:09:16.096Z,89.60
2018-11-03T06:09:47.220Z,92.27
2018-11-03T06:10:18.333Z,97.42
2018-11-03T06:10:49.472Z,95.97
2018-11-03T06:11:20.610Z,91.40
2018-11-03T06:11:51.739Z,92.92
2018-11-03T06:12:22.878Z,82.53
2018-11-03T06:12:54.000Z,73.35
2018-11-03T06:13:25.178Z,71.02
2018-11-03T06:13:56.302Z,68.30
2018-11-03T06:14:27.472Z,68.60
2018-11-03T06:14:58.559Z,68.78
2018-11-03T06:15:29.840Z,64.10
2018-11-03T06:16:00.880Z,62.27
2018-11-03T06:16:32.034Z,64.32
2018-11-03T06:17:03.191Z,78.70
2018-11-03T06:17:34.341Z,67.80
2018-11-03T06:18:05.491Z,67.37
2018-11-03T06:18:36.665Z,71.47
2018-11-03T06:19:07.791Z,78.50
2018-11-03T06:19:39.006Z,82.67
2018-11-03T06:20:10.146Z,79.77
2018-11-03T06:20:41.283Z,75.22
2018-11-03T06:21:12.418Z,73.28
2018-11-03T06:21:43.587Z,82.53
2018-11-03T06:22:14.799Z,77.40
2018-11-03T06:22:45.973Z,59.33
2018-11-03T06:23:17.074Z,62.10
2018-11-03T06:23:48.223Z,60.92
2018-11-03T06:24:19.372Z,60.98
2018-11-03T06:24:50.514Z,54.75
2018-11-03T06:25:21.675Z,57.90
2018-11-03T06:25:52.812Z,63.58
2018-11-03T06:26:23.996Z,60.73
2018-11-03T06:26:55.150Z,70.47
2018-11-03T06:27:26.337Z,72.42
2018-11-03T06:27:57.540Z,71.95
2018-11-03T06:28:28.626Z,61.63
2018-11-03T06:28:59.763Z,52.40
2018-11-03T06:29:30.887Z,48.55
2018-11-03T06:30:02.002Z,47.95
2018-11-03T06:30:33.163Z,47.00
2018-11-03T06:31:04.297Z,50.52
2018-11-03T06:31:35.402Z,48.85
2018-11-03T06:32:06.550Z,51.20
2018-11-03T06:32:37.678Z,48.35
2018-11-03T06:33:09.368Z,52.45
2018-11-03T06:33:40.513Z,52.88
2018-11-03T06:34:11.696Z,39.83
2018-11-03T06:34:42.933Z,40.33
2018-11-03T06:35:14.113Z,45.67
2018-11-03T06:35:45.194Z,46.00
2018-11-03T06:36:16.338Z,43.10
2018-11-03T06:36:47.494Z,42.78
2018-11-03T06:37:18.661Z,40.98
2018-11-03T06:37:49.849Z,39.20
2018-11-03T06:38:20.978Z,38.48
2018-11-03T06:38:52.135Z,38.17
2018-11-03T06:39:23.399Z,37.25
2018-11-03T06:39:54.553Z,36.77
2018-11-03T06:40:25.730Z,35.15